Time;durP1;ratioP1;P1;durP2;ratioP2;P2;SDS_P1;SDS_P2;PMS_P1;PMS_P2;Temp;Humidity;BMP_temperature;BMP_pressure;BME280_temperature;BME280_humidity;BME280_pressure;Samples;Min_cycle;Max_cycle;Signal;HPM_P1;HPM_P2
2022/04/06 00:00:10;;;;;;;3.93;3.63;;;;;;;22.96;30.04;94662.47;6083375;28;104519;-61
2022/04/06 00:03:11;;;;;;;4.10;3.80;;;;;;;22.94;29.89;94653.22;6084223;28;103115;-61
2022/04/06 00:06:13;;;;;;;4.10;3.80;;;;;;;22.94;30.21;94654.00;6085337;28;103040;-60
2022/04/06 00:09:39;;;;;;;4.50;4.10;;;;;;;22.92;30.04;94653.53;6079038;28;105114;-61
2022/04/06 00:12:41;;;;;;;4.17;3.87;;;;;;;22.93;29.70;94660.44;6084218;28;103005;-62
2022/04/06 00:15:43;;;;;;;4.03;3.73;;;;;;;22.89;30.02;94656.84;6086000;28;104000;-61
2022/04/06 00:18:45;;;;;;;4.30;4.00;;;;;;;22.93;29.61;94662.31;6087191;28;104132;-62
2022/04/06 00:21:47;;;;;;;3.93;3.60;;;;;;;22.91;30.10;94654.63;6076376;28;103994;-60
2022/04/06 00:24:48;;;;;;;3.87;3.57;;;;;;;22.91;29.50;94656.53;6086537;28;102964;-61
2022/04/06 00:27:50;;;;;;;4.30;3.90;;;;;;;22.91;29.68;94654.63;6086232;28;104309;-61
2022/04/06 00:30:52;;;;;;;3.23;3.03;;;;;;;22.91;29.88;94659.19;6078387;28;103485;-64
2022/04/06 00:33:54;;;;;;;4.17;3.87;;;;;;;22.90;29.98;94654.97;6084354;28;105766;-61
2022/04/06 00:36:57;;;;;;;4.23;3.83;;;;;;;22.89;30.03;94656.84;6084411;28;104917;-61
2022/04/06 00:39:59;;;;;;;3.60;3.30;;;;;;;22.91;29.66;94667.19;6086043;28;104403;-61
2022/04/06 00:43:08;;;;;;;4.70;4.40;;;;;;;22.90;29.90;94674.41;6078515;28;103754;-61
2022/04/06 00:46:10;;;;;;;3.93;3.63;;;;;;;22.88;29.92;94673.97;6085921;28;103063;-61
2022/04/06 00:49:14;;;;;;;4.13;3.83;;;;;;;22.89;29.98;94674.75;6084234;28;103533;-61
2022/04/06 00:52:16;;;;;;;4.00;3.70;;;;;;;22.88;29.86;94676.63;6079266;28;103291;-61
2022/04/06 00:55:18;;;;;;;4.00;3.70;;;;;;;22.84;29.51;94666.88;6085397;28;103181;-61
2022/04/06 00:58:20;;;;;;;3.90;3.60;;;;;;;22.87;29.64;94667.06;6085735;28;104360;-61
2022/04/06 01:01:22;;;;;;;4.53;4.13;;;;;;;22.86;29.82;94662.81;6081179;28;103527;-61
2022/04/06 01:04:24;;;;;;;4.43;4.03;;;;;;;22.87;29.95;94674.28;6078421;28;103299;-61
2022/04/06 01:07:26;;;;;;;4.13;3.83;;;;;;;22.87;29.56;94679.63;6068656;28;103343;-61
2022/04/06 01:10:28;;;;;;;4.37;3.97;;;;;;;22.86;29.89;94670.84;6083184;28;103642;-61
2022/04/06 01:13:30;;;;;;;3.63;3.33;;;;;;;22.87;29.74;94676.94;6083383;28;104451;-61
2022/04/06 01:16:32;;;;;;;4.03;3.73;;;;;;;22.85;29.80;94682.59;6079804;28;103210;-61
2022/04/06 01:19:38;;;;;;;4.97;4.07;;;;;;;22.86;29.48;94678.06;6083421;28;102912;-61
2022/04/06 01:22:40;;;;;;;4.23;3.90;;;;;;;22.84;29.72;94677.56;6087785;28;104177;-61
2022/04/06 01:25:41;;;;;;;4.50;4.20;;;;;;;22.85;29.76;94677.28;6084493;28;103268;-61
2022/04/06 01:28:43;;;;;;;4.40;4.00;;;;;;;22.84;29.41;94682.91;6088503;28;103060;-61
2022/04/06 01:31:46;;;;;;;4.20;3.90;;;;;;;22.85;29.84;94681.78;6088466;28;104292;-61
2022/04/06 01:34:49;;;;;;;5.10;4.70;;;;;;;22.84;29.58;94674.91;6088256;28;104269;-61
2022/04/06 01:37:51;;;;;;;3.97;3.67;;;;;;;22.85;29.89;94673.78;6084812;28;104091;-61
2022/04/06 01:40:54;;;;;;;5.00;4.20;;;;;;;22.83;29.72;94671.44;6087235;28;102842;-61
2022/04/06 01:43:56;;;;;;;4.80;4.40;;;;;;;22.83;29.75;94673.34;6107198;28;103232;-61
2022/04/06 01:46:58;;;;;;;4.53;4.20;;;;;;;22.83;29.33;94670.66;6091458;28;103315;-61
2022/04/06 01:53:20;;;;;;;4.80;4.40;;;;;;;22.82;29.69;94669.09;6088769;28;103198;-61
2022/04/06 01:56:22;;;;;;;4.07;3.77;;;;;;;22.82;29.15;94679.78;6088707;28;104471;-61
2022/04/06 01:59:24;;;;;;;4.37;4.03;;;;;;;22.82;29.56;94680.56;6080007;28;104117;-61
2022/04/06 02:02:28;;;;;;;4.40;4.10;;;;;;;22.82;29.17;94679.78;6088659;28;103137;-61
2022/04/06 02:05:32;;;;;;;4.30;4.00;;;;;;;22.81;29.74;94676.31;6087934;28;104468;-61
2022/04/06 02:08:34;;;;;;;3.70;3.50;;;;;;;22.81;29.18;94675.53;6087877;28;103257;-61
2022/04/06 02:11:36;;;;;;;4.33;3.97;;;;;;;22.82;29.54;94682.44;6083071;28;104189;-61
2022/04/06 02:14:39;;;;;;;4.10;3.80;;;;;;;22.81;29.20;94676.31;6084793;28;103003;-61
2022/04/06 02:17:42;;;;;;;4.20;3.90;;;;;;;22.82;29.16;94685.88;6087998;28;104156;-61
2022/04/06 02:20:43;;;;;;;4.33;4.00;;;;;;;22.80;29.22;94681.97;6082289;28;103208;-61
2022/04/06 02:23:45;;;;;;;4.40;4.10;;;;;;;22.81;29.39;94680.88;6088546;28;103350;-61
2022/04/06 02:26:47;;;;;;;4.70;4.30;;;;;;;22.81;29.31;94681.66;6087488;28;103956;-62
2022/04/06 02:29:50;;;;;;;4.40;4.10;;;;;;;22.82;29.48;94687.78;6087851;28;102735;-61
2022/04/06 02:32:52;;;;;;;6.30;4.30;;;;;;;22.80;29.23;94685.44;6081393;28;103289;-61
2022/04/06 02:35:53;;;;;;;4.80;4.40;;;;;;;22.81;29.40;94688.88;6087242;28;104032;-61
2022/04/06 02:38:55;;;;;;;5.03;4.10;;;;;;;22.80;29.24;94682.75;6087208;28;103032;-61
2022/04/06 02:41:57;;;;;;;4.20;3.80;;;;;;;22.82;29.40;94695.78;6073400;28;103409;-61
2022/04/06 02:44:59;;;;;;;4.70;4.30;;;;;;;22.81;28.95;94691.53;6105757;28;103157;-62
2022/04/06 02:48:00;;;;;;;4.70;4.30;;;;;;;22.81;29.47;94702.22;6092955;28;103861;-61
2022/04/06 02:51:02;;;;;;;4.27;3.87;;;;;;;22.80;29.26;94698.75;6087558;28;102848;-61
2022/04/06 02:54:04;;;;;;;4.03;3.73;;;;;;;22.80;29.08;94692.66;6082376;28;103603;-61
2022/04/06 02:57:06;;;;;;;4.00;3.70;;;;;;;22.79;29.03;94696.41;6086746;28;103918;-61
2022/04/06 03:00:08;;;;;;;4.33;3.97;;;;;;;22.80;29.01;94706.00;6086473;28;103098;-61
2022/04/06 03:03:10;;;;;;;3.83;3.53;;;;;;;22.78;29.41;94708.19;6069581;28;103560;-61
2022/04/06 03:06:12;;;;;;;4.27;3.87;;;;;;;22.78;29.20;94716.19;6081139;28;104493;-60
2022/04/06 03:09:14;;;;;;;3.90;3.60;;;;;;;22.79;29.26;94721.22;6087956;28;104164;-61
2022/04/06 03:12:16;;;;;;;3.60;3.40;;;;;;;22.78;29.40;94724.19;6087710;28;103854;-61
2022/04/06 03:15:17;;;;;;;4.17;3.87;;;;;;;22.77;29.10;94718.06;6081158;28;103403;-60
2022/04/06 03:18:20;;;;;;;4.00;3.70;;;;;;;22.77;28.97;94723.41;6085096;28;104056;-61
2022/04/06 03:21:21;;;;;;;4.27;3.87;;;;;;;22.77;29.33;94717.28;6086410;28;103296;-62
2022/04/06 03:24:23;;;;;;;4.10;3.70;;;;;;;22.75;29.18;94728.28;6086888;28;103368;-64
2022/04/06 03:27:25;;;;;;;7.30;4.80;;;;;;;22.64;28.48;94725.16;6081434;28;104193;-61
2022/04/06 03:30:27;;;;;;;5.57;5.10;;;;;;;22.36;28.15;94721.25;6086539;28;103235;-61
2022/04/06 03:33:29;;;;;;;6.13;5.20;;;;;;;22.20;27.89;94720.94;6087474;28;103318;-62
2022/04/06 03:36:31;;;;;;;6.60;6.00;;;;;;;22.17;27.84;94726.09;6086369;28;103314;-60
2022/04/06 03:39:33;;;;;;;8.50;6.60;;;;;;;22.05;27.08;94730.19;6079578;28;103265;-64
2022/04/06 03:42:35;;;;;;;8.23;6.70;;;;;;;22.12;27.97;94729.72;6077470;28;103344;-65
2022/04/06 03:45:37;;;;;;;10.63;9.53;;;;;;;22.14;28.01;94732.84;6093677;28;102976;-65
2022/04/06 03:48:38;;;;;;;10.97;9.87;;;;;;;22.03;27.83;94703.09;6105708;28;103509;-65
2022/04/06 03:51:40;;;;;;;10.73;9.43;;;;;;;22.17;27.58;94726.09;6087353;28;103278;-61
2022/04/06 03:54:46;;;;;;;12.13;10.30;;;;;;;22.22;28.21;94736.63;6086783;28;103466;-61
2022/04/06 03:57:48;;;;;;;13.10;11.47;;;;;;;22.27;26.95;94736.47;6087362;28;103431;-61
2022/04/06 04:00:50;;;;;;;13.53;10.50;;;;;;;22.29;27.90;94734.25;6078800;28;103154;-61
2022/04/06 04:03:53;;;;;;;14.60;9.67;;;;;;;22.35;27.92;94743.69;6085004;28;103139;-65
2022/04/06 04:06:54;;;;;;;10.50;8.87;;;;;;;22.30;27.74;94743.81;6086678;28;103247;-62
2022/04/06 04:10:01;;;;;;;15.60;9.57;;;;;;;22.30;28.02;94749.94;6081902;28;103040;-64
2022/04/06 04:13:02;;;;;;;18.83;10.90;;;;;;;22.32;27.68;94752.28;6079553;28;102920;-65
2022/04/06 04:16:05;;;;;;;12.70;11.07;;;;;;;22.30;27.32;94757.16;6040092;28;104121;-64
2022/04/06 04:19:06;;;;;;;12.37;10.80;;;;;;;22.31;26.96;94758.72;6045344;28;103292;-65
2022/04/06 04:22:08;;;;;;;13.37;10.10;;;;;;;22.23;27.89;94765.63;6032676;28;103921;-62
2022/04/06 04:25:10;;;;;;;10.90;9.70;;;;;;;22.31;27.04;94770.16;6034593;28;104114;-65
2022/04/06 04:28:12;;;;;;;13.13;9.73;;;;;;;22.35;27.14;94770.34;6046038;28;103066;-63
2022/04/06 04:31:14;;;;;;;12.90;9.63;;;;;;;22.31;26.73;94777.38;6045735;28;103204;-69
2022/04/06 04:34:15;;;;;;;10.20;9.10;;;;;;;22.28;26.73;94783.34;6040523;28;103029;-64
2022/04/06 04:37:17;;;;;;;10.23;8.57;;;;;;;22.33;26.88;94785.84;6035840;28;103414;-63
2022/04/06 04:40:21;;;;;;;14.07;9.20;;;;;;;22.31;26.50;94785.38;6031200;28;103049;-64
2022/04/06 04:43:23;;;;;;;9.70;8.70;;;;;;;22.26;26.74;94782.88;6035243;28;103338;-64
2022/04/06 04:46:26;;;;;;;14.77;9.47;;;;;;;22.20;26.55;94779.59;6043448;28;102908;-64
2022/04/06 04:49:27;;;;;;;10.83;7.63;;;;;;;22.18;26.37;94788.97;6044972;28;103350;-62
2022/04/06 04:52:29;;;;;;;13.10;7.63;;;;;;;22.26;26.32;94788.22;6047157;28;103317;-64
2022/04/06 04:55:32;;;;;;;15.10;8.13;;;;;;;22.29;26.66;94791.03;6040844;28;103556;-65
2022/04/06 04:58:34;;;;;;;10.53;7.90;;;;;;;22.29;27.09;94799.03;6047236;28;102899;-64
2022/04/06 05:01:36;;;;;;;16.90;7.57;;;;;;;22.29;27.46;94803.56;6061945;28;103356;-65
2022/04/06 05:04:38;;;;;;;11.77;7.70;;;;;;;22.34;27.36;94804.19;6047705;28;103173;-65
2022/04/06 05:07:40;;;;;;;19.17;7.83;;;;;;;22.35;27.59;94813.78;6030896;28;103577;-61
2022/04/06 05:10:42;;;;;;;11.43;7.40;;;;;;;22.38;27.63;94823.81;6013479;28;103112;-64
2022/04/06 05:13:43;;;;;;;10.30;7.40;;;;;;;22.34;27.35;94816.75;6024104;28;103046;-65
2022/04/06 05:16:45;;;;;;;9.00;7.10;;;;;;;22.42;27.72;94831.97;6055925;28;103283;-64
2022/04/06 05:19:47;;;;;;;8.40;6.50;;;;;;;22.45;27.95;94833.22;6061826;28;103186;-64
2022/04/06 05:22:48;;;;;;;9.73;7.13;;;;;;;22.48;27.72;94829.94;6061564;28;104542;-65
2022/04/06 05:25:50;;;;;;;7.47;6.70;;;;;;;22.47;28.04;94825.69;6061791;28;103847;-64
2022/04/06 05:28:52;;;;;;;9.27;7.07;;;;;;;22.51;27.91;94827.41;6056858;28;103583;-60
2022/04/06 05:31:54;;;;;;;8.43;7.30;;;;;;;22.49;28.45;94826.94;6061354;28;103927;-65
2022/04/06 05:34:55;;;;;;;8.37;7.57;;;;;;;22.53;28.51;94835.91;6061491;28;103332;-64
2022/04/06 05:37:57;;;;;;;9.60;7.50;;;;;;;22.50;28.89;94835.72;6061226;28;103616;-64
2022/04/06 05:40:59;;;;;;;8.97;7.77;;;;;;;22.53;28.63;94849.25;6056531;28;102958;-64
2022/04/06 05:44:01;;;;;;;12.10;7.93;;;;;;;22.64;28.79;94847.84;6098475;28;102760;-66
2022/04/06 05:47:03;;;;;;;9.93;8.27;;;;;;;22.77;29.79;94856.00;6108816;28;103294;-63
2022/04/06 05:50:07;;;;;;;9.50;7.93;;;;;;;22.88;29.97;94852.72;6104238;28;104482;-61
2022/04/06 05:53:12;;;;;;;8.13;7.33;;;;;;;23.00;29.65;94849.41;6109326;28;104553;-64
2022/04/06 05:56:14;;;;;;;9.70;8.07;;;;;;;23.10;29.83;94854.41;6109208;28;103214;-66
2022/04/06 05:59:15;;;;;;;11.47;8.50;;;;;;;23.14;29.69;94858.03;6109131;28;102689;-63
2022/04/06 06:02:19;;;;;;;9.70;8.30;;;;;;;23.22;29.22;94856.44;6104741;28;103697;-64
2022/04/06 06:05:21;;;;;;;12.20;7.63;;;;;;;23.28;28.98;94855.97;6109704;28;103980;-63
2022/04/06 06:08:22;;;;;;;10.03;8.20;;;;;;;23.33;28.96;94856.91;6111086;28;103039;-64
2022/04/06 06:11:24;;;;;;;10.13;8.67;;;;;;;23.40;29.31;94863.34;6092476;28;104201;-63
2022/04/06 06:14:26;;;;;;;9.40;8.53;;;;;;;23.49;29.23;94863.31;6091910;28;104140;-65
2022/04/06 06:17:28;;;;;;;16.83;9.47;;;;;;;23.56;29.38;94867.06;6113563;28;104292;-64
2022/04/06 06:20:30;;;;;;;10.63;9.30;;;;;;;23.59;29.22;94857.63;6114035;28;104291;-67
2022/04/06 06:23:32;;;;;;;12.60;9.13;;;;;;;23.61;28.70;94866.13;6108537;28;102751;-65
2022/04/06 06:26:35;;;;;;;10.27;8.73;;;;;;;23.63;28.64;94866.56;6096052;28;102995;-63
2022/04/06 06:29:37;;;;;;;10.50;9.17;;;;;;;23.66;28.68;94860.59;6113201;28;103968;-65
2022/04/06 06:32:40;;;;;;;10.10;8.70;;;;;;;23.76;28.53;94854.91;6105843;28;103478;-65
2022/04/06 06:35:42;;;;;;;22.80;9.57;;;;;;;23.84;29.08;94855.97;6091559;28;103834;-65
2022/04/06 06:38:44;;;;;;;12.63;9.03;;;;;;;23.84;28.77;94851.41;6088165;28;103045;-63
2022/04/06 06:41:46;;;;;;;12.30;8.50;;;;;;;23.93;28.92;94854.03;6087940;28;104099;-64
2022/04/06 06:44:48;;;;;;;17.43;8.57;;;;;;;23.96;29.13;94848.03;6080098;28;103989;-63
2022/04/06 06:47:51;;;;;;;13.83;8.23;;;;;;;23.98;28.98;94847.72;6086392;28;103393;-64
2022/04/06 06:50:53;;;;;;;16.60;8.73;;;;;;;23.98;28.74;94845.84;6112789;28;103079;-63
2022/04/06 06:53:54;;;;;;;11.63;7.70;;;;;;;23.99;28.86;94846.63;6094722;28;103344;-66
2022/04/06 06:56:56;;;;;;;11.33;7.30;;;;;;;24.01;28.75;94844.44;6082902;28;103889;-65
2022/04/06 06:59:58;;;;;;;7.53;6.77;;;;;;;24.01;28.92;94844.44;6088335;28;104229;-66
2022/04/06 07:03:00;;;;;;;10.53;7.03;;;;;;;24.00;28.70;94842.88;6088525;28;103205;-65
2022/04/06 07:06:02;;;;;;;16.10;7.40;;;;;;;23.97;28.57;94838.91;6105496;28;103979;-64
2022/04/06 07:09:03;;;;;;;9.20;7.70;;;;;;;24.02;28.42;94846.00;6106041;28;103328;-65
2022/04/06 07:12:06;;;;;;;11.03;7.57;;;;;;;24.00;28.46;94849.00;6112110;28;103268;-66
2022/04/06 07:15:08;;;;;;;8.40;6.67;;;;;;;24.00;28.26;94843.66;6098751;28;104307;-66
2022/04/06 07:18:12;;;;;;;9.50;6.80;;;;;;;23.99;28.76;94846.63;6080778;28;104345;-65
2022/04/06 07:21:14;;;;;;;7.80;6.80;;;;;;;24.00;28.23;94849.00;6102980;28;104315;-66
2022/04/06 07:24:16;;;;;;;7.30;6.40;;;;;;;24.01;28.61;94847.09;6087700;28;104077;-66
2022/04/06 07:27:18;;;;;;;7.93;6.37;;;;;;;24.02;28.25;94852.13;6087801;28;102997;-66
2022/04/06 07:30:20;;;;;;;7.87;6.47;;;;;;;24.03;28.04;94848.38;6082297;28;103306;-65
2022/04/06 07:33:23;;;;;;;7.40;6.43;;;;;;;24.04;28.45;94849.16;6088590;28;102713;-66
2022/04/06 07:36:25;;;;;;;9.00;6.53;;;;;;;24.03;28.43;94844.91;6087963;28;103157;-66
2022/04/06 07:39:27;;;;;;;8.40;5.80;;;;;;;24.05;28.11;94843.47;6085701;28;103216;-66
2022/04/06 07:42:29;;;;;;;6.40;5.80;;;;;;;24.07;28.44;94849.28;6100694;28;103453;-65
2022/04/06 07:45:31;;;;;;;6.43;5.83;;;;;;;24.10;27.84;94845.97;6110999;28;104191;-62
2022/04/06 07:48:33;;;;;;;6.70;6.00;;;;;;;24.13;27.84;94844.53;6110699;28;103182;-66
2022/04/06 07:51:37;;;;;;;6.90;6.20;;;;;;;24.16;28.09;94846.56;6105088;28;103083;-66
2022/04/06 07:54:39;;;;;;;7.50;6.43;;;;;;;24.17;28.36;94851.56;6111065;28;103050;-63
2022/04/06 07:57:41;;;;;;;7.20;6.50;;;;;;;24.16;29.23;94850.00;6110810;28;103301;-64
2022/04/06 08:00:43;;;;;;;7.63;6.23;;;;;;;24.18;29.64;94849.69;6093485;28;103073;-64
2022/04/06 08:03:45;;;;;;;9.03;6.10;;;;;;;24.18;29.40;94849.69;6105170;28;103812;-64
2022/04/06 08:06:47;;;;;;;8.60;6.70;;;;;;;24.19;29.91;94843.22;6110708;28;103241;-66
2022/04/06 08:09:49;;;;;;;8.30;6.00;;;;;;;24.25;30.11;94841.94;6109206;28;103113;-65
2022/04/06 08:12:51;;;;;;;8.40;7.03;;;;;;;24.31;29.69;94847.88;6105526;28;103211;-66
2022/04/06 08:15:53;;;;;;;8.40;6.73;;;;;;;24.29;29.23;94840.19;6109541;28;105689;-66
2022/04/06 08:18:55;;;;;;;7.90;6.53;;;;;;;24.34;29.24;94845.34;6092610;28;102888;-65
2022/04/06 08:21:56;;;;;;;6.67;5.83;;;;;;;24.37;29.27;94843.94;6110143;28;103148;-66
2022/04/06 08:24:58;;;;;;;7.90;6.20;;;;;;;24.37;29.05;94842.03;6094647;28;103257;-66
2022/04/06 08:28:20;;;;;;;11.00;5.80;;;;;;;24.35;29.20;94838.88;6104248;28;102688;-66
2022/04/06 08:31:22;;;;;;;8.63;5.73;;;;;;;24.40;28.98;94836.03;6099733;28;103184;-65
2022/04/06 08:34:24;;;;;;;7.27;6.10;;;;;;;24.37;29.37;94834.00;6085993;28;102831;-62
2022/04/06 08:37:29;;;;;;;9.57;7.60;;;;;;;24.37;29.54;94830.56;6079715;28;103125;-62
2022/04/06 08:40:33;;;;;;;6.80;6.20;;;;;;;24.42;29.21;94827.69;6084154;28;102951;-61
2022/04/06 08:43:35;;;;;;;7.63;6.80;;;;;;;24.42;29.62;94822.34;6096062;28;103056;-63
2022/04/06 08:46:40;;;;;;;9.30;7.30;;;;;;;24.44;29.26;94820.88;6105621;28;104484;-64
2022/04/06 08:49:42;;;;;;;8.17;7.47;;;;;;;24.43;29.38;94827.34;6110596;28;103685;-66
2022/04/06 08:52:45;;;;;;;8.00;7.20;;;;;;;24.44;29.40;94825.47;6109886;28;103080;-65
2022/04/06 08:56:02;;;;;;;10.47;7.17;;;;;;;24.38;29.40;94822.22;6099144;28;104113;-65
2022/04/06 08:59:04;;;;;;;8.90;7.50;;;;;;;24.36;29.48;94823.63;6080535;28;103991;-66
2022/04/06 09:02:07;;;;;;;7.30;6.60;;;;;;;24.33;29.59;94816.25;6085608;28;102720;-64
2022/04/06 09:05:13;;;;;;;10.40;7.33;;;;;;;24.33;29.88;94814.34;6083575;28;103815;-64
2022/04/06 09:08:15;;;;;;;9.20;7.80;;;;;;;24.34;30.00;94807.91;6096770;28;103212;-66
2022/04/06 09:11:19;;;;;;;7.97;7.27;;;;;;;24.34;30.61;94810.56;6100620;28;104239;-64
2022/04/06 09:14:39;;;;;;;8.53;7.73;;;;;;;24.33;30.76;94797.53;6067180;28;103223;-65
2022/04/06 09:17:49;;;;;;;8.07;7.27;;;;;;;24.32;30.75;94801.31;6085750;28;104345;-64
2022/04/06 09:21:00;;;;;;;8.43;7.50;;;;;;;24.33;30.96;94792.16;6079461;28;103307;-63
2022/04/06 09:24:01;;;;;;;8.23;7.40;;;;;;;24.33;30.74;94792.16;6097910;28;103043;-61
2022/04/06 09:27:04;;;;;;;7.47;6.73;;;;;;;24.32;30.78;94782.59;6108492;28;103100;-65
2022/04/06 09:30:08;;;;;;;9.33;6.60;;;;;;;24.36;31.17;94780.81;6103844;28;103078;-64
2022/04/06 09:33:19;;;;;;;7.30;6.70;;;;;;;24.38;30.90;94776.72;6109711;28;102937;-64
2022/04/06 09:36:21;;;;;;;6.80;6.10;;;;;;;24.38;31.17;94776.72;6109271;28;104365;-62
2022/04/06 09:39:46;;;;;;;6.80;6.10;;;;;;;24.38;31.95;94774.06;6104541;28;103048;-64
2022/04/06 09:42:51;;;;;;;6.93;6.30;;;;;;;24.34;31.56;94770.44;6079617;28;103047;-65
2022/04/06 09:49:18;;;;;;;7.07;6.37;;;;;;;24.29;31.51;94765.31;6088775;28;104051;-65
2022/04/06 09:52:21;;;;;;;7.70;6.13;;;;;;;24.31;31.28;94757.75;6083563;28;103091;-63
2022/04/06 09:55:24;;;;;;;13.70;6.70;;;;;;;24.33;31.31;94744.81;6089390;28;104289;-65
2022/04/06 09:58:27;;;;;;;6.60;6.00;;;;;;;24.33;31.24;94742.16;6089230;28;103649;-61
2022/04/06 10:01:33;;;;;;;7.00;6.30;;;;;;;24.31;31.19;94741.69;6108736;28;103228;-64
2022/04/06 10:04:35;;;;;;;7.90;6.10;;;;;;;24.31;31.64;94743.59;6102845;28;103994;-64
2022/04/06 10:07:39;;;;;;;7.37;5.67;;;;;;;24.32;31.45;94743.25;6100746;28;103145;-62
2022/04/06 10:10:41;;;;;;;8.83;5.90;;;;;;;24.33;31.24;94736.00;6111359;28;103161;-64
2022/04/06 10:13:44;;;;;;;6.43;5.67;;;;;;;24.36;31.36;94727.34;6083748;28;104078;-64
2022/04/06 10:16:55;;;;;;;9.60;6.07;;;;;;;24.33;31.65;94718.06;6089943;28;104091;-64
2022/04/06 10:20:10;;;;;;;9.57;5.50;;;;;;;24.34;31.30;94714.28;6088968;28;103067;-64
2022/04/06 10:23:39;;;;;;;6.40;5.80;;;;;;;24.34;31.69;94713.50;6092054;28;103196;-62
2022/04/06 10:27:14;;;;;;;6.73;6.00;;;;;;;24.29;31.53;94711.81;6060286;28;103785;-64
2022/04/06 10:30:20;;;;;;;13.63;8.80;;;;;;;24.30;31.60;94709.94;6066827;28;104302;-66
2022/04/06 10:33:22;;;;;;;9.10;7.33;;;;;;;24.29;31.56;94698.44;6066141;28;103278;-64
2022/04/06 10:36:30;;;;;;;9.23;8.20;;;;;;;24.28;31.97;94696.88;6060944;28;103450;-64
2022/04/06 10:39:33;;;;;;;10.33;9.43;;;;;;;24.28;32.20;94696.09;6048252;28;103242;-63
2022/04/06 10:42:37;;;;;;;13.20;11.87;;;;;;;24.29;32.12;94695.78;6064908;28;103050;-66
2022/04/06 10:45:40;;;;;;;18.33;14.60;;;;;;;24.15;32.32;94693.38;6069513;28;103570;-66
2022/04/06 10:49:06;;;;;;;14.00;12.57;;;;;;;24.06;31.98;94681.97;6098983;28;103012;-65
2022/04/06 10:52:22;;;;;;;15.47;13.97;;;;;;;24.01;31.53;94670.69;6093431;28;103360;-65
2022/04/06 10:55:25;;;;;;;14.87;13.60;;;;;;;23.95;31.49;94670.09;6103217;28;103114;-65
2022/04/06 10:58:27;;;;;;;15.53;14.13;;;;;;;23.96;31.55;94673.53;6083097;28;103045;-65
2022/04/06 11:01:30;;;;;;;16.37;14.90;;;;;;;23.92;31.38;94670.75;6088542;28;104018;-65
2022/04/06 11:04:39;;;;;;;17.63;16.10;;;;;;;23.92;31.27;94669.97;6082133;28;103397;-63
2022/04/06 11:11:39;;;;;;;15.77;13.97;;;;;;;23.87;30.96;94657.59;6104925;28;103034;-64
2022/04/06 11:14:45;;;;;;;13.60;12.40;;;;;;;23.85;31.13;94657.88;6084898;28;103429;-63
2022/04/06 11:17:48;;;;;;;14.47;12.70;;;;;;;23.84;30.83;94658.22;6084956;28;103059;-65
2022/04/06 11:20:59;;;;;;;15.70;14.40;;;;;;;23.83;30.83;94651.31;6076591;28;103478;-65
2022/04/06 11:24:01;;;;;;;16.70;15.30;;;;;;;23.81;30.64;94648.97;6089828;28;103089;-65
2022/04/06 11:27:03;;;;;;;21.30;19.40;;;;;;;23.79;30.87;94635.16;6107086;28;104088;-65
2022/04/06 11:30:08;;;;;;;21.63;19.90;;;;;;;23.79;30.97;94640.50;6087696;28;103161;-64
2022/04/06 11:33:10;;;;;;;23.50;21.43;;;;;;;23.77;30.90;94632.03;6082707;28;103233;-65
2022/04/06 11:36:18;;;;;;;19.77;18.17;;;;;;;23.76;30.60;94630.47;6086893;28;103215;-64
2022/04/06 11:39:20;;;;;;;17.80;16.37;;;;;;;23.79;31.00;94621.00;6087604;28;103081;-65
2022/04/06 11:42:22;;;;;;;18.60;17.00;;;;;;;23.80;30.71;94617.22;6079330;28;102611;-64
2022/04/06 11:45:37;;;;;;;16.33;14.83;;;;;;;23.78;30.85;94617.56;6076212;28;103034;-63
2022/04/06 11:48:41;;;;;;;17.97;16.47;;;;;;;23.78;30.73;94603.41;6095380;28;102970;-61
2022/04/06 11:51:44;;;;;;;18.37;16.77;;;;;;;23.76;30.79;94601.06;6095499;28;103056;-67
2022/04/06 11:54:56;;;;;;;17.67;16.07;;;;;;;23.75;30.77;94604.06;6090233;28;103429;-65
2022/04/06 11:58:00;;;;;;;15.83;14.63;;;;;;;23.74;30.72;94595.28;6095558;28;103935;-65
2022/04/06 12:01:05;;;;;;;17.10;15.70;;;;;;;23.75;30.75;94588.03;6095919;28;104599;-66
2022/04/06 12:04:23;;;;;;;16.10;14.80;;;;;;;23.73;30.54;94587.59;6091262;28;103801;-64
2022/04/06 12:07:26;;;;;;;15.30;14.00;;;;;;;23.73;30.81;94587.59;6095604;28;103412;-66
2022/04/06 12:10:28;;;;;;;15.07;13.83;;;;;;;23.73;30.63;94585.69;6096176;28;104090;-65
2022/04/06 12:13:33;;;;;;;14.07;12.87;;;;;;;23.72;30.58;94578.78;6095345;28;103053;-65
2022/04/06 12:16:35;;;;;;;14.10;12.80;;;;;;;23.73;30.74;94582.25;6102344;28;104347;-65
2022/04/06 12:19:37;;;;;;;15.30;14.10;;;;;;;23.72;30.62;94570.00;6118920;28;102937;-62
2022/04/06 12:22:39;;;;;;;14.50;13.13;;;;;;;23.71;30.63;94566.53;6119881;28;103286;-65
2022/04/06 12:25:41;;;;;;;15.33;13.90;;;;;;;23.72;30.57;94559.31;6119834;28;103197;-65
2022/04/06 12:28:48;;;;;;;13.77;12.60;;;;;;;23.74;30.31;94559.75;6102759;28;103604;-65
2022/04/06 12:31:53;;;;;;;14.93;13.70;;;;;;;23.73;30.47;94560.88;6096671;28;103825;-64
2022/04/06 12:34:55;;;;;;;15.50;14.20;;;;;;;23.72;30.75;94560.09;6095702;28;103422;-64
2022/04/06 12:37:56;;;;;;;14.83;13.57;;;;;;;23.71;30.80;94549.72;6091378;28;104238;-65
2022/04/06 12:41:12;;;;;;;14.83;13.53;;;;;;;23.71;31.29;94549.72;6095023;28;103457;-65
2022/04/06 12:44:22;;;;;;;16.57;15.17;;;;;;;23.71;31.31;94553.19;6095388;28;103395;-65
2022/04/06 12:47:25;;;;;;;14.73;13.53;;;;;;;23.69;31.16;94539.38;6077869;28;103321;-63
2022/04/06 12:50:36;;;;;;;15.17;13.97;;;;;;;23.63;31.04;94524.63;6088755;28;102825;-64
2022/04/06 12:53:46;;;;;;;13.30;12.30;;;;;;;23.69;31.17;94533.22;6077606;28;103807;-65
2022/04/06 12:57:08;;;;;;;14.77;13.47;;;;;;;23.69;31.17;94528.69;6094340;28;102812;-65
2022/04/06 13:00:20;;;;;;;14.07;12.87;;;;;;;23.69;30.98;94525.22;6089853;28;103191;-65
2022/04/06 13:03:24;;;;;;;13.43;12.43;;;;;;;23.70;31.14;94524.13;6095081;28;103799;-65
2022/04/06 13:06:26;;;;;;;13.90;12.80;;;;;;;23.68;31.26;94513.75;6094740;28;102642;-65
2022/04/06 13:09:28;;;;;;;14.33;13.13;;;;;;;23.69;31.19;94501.16;6095129;28;102997;-65
2022/04/06 13:12:31;;;;;;;15.07;13.87;;;;;;;23.68;30.83;94494.25;6090379;28;103147;-65
2022/04/06 13:15:35;;;;;;;15.50;14.10;;;;;;;23.67;31.42;94493.47;6097407;28;104070;-63
2022/04/06 13:18:37;;;;;;;13.97;12.87;;;;;;;23.68;31.16;94488.91;6118667;28;103531;-61
2022/04/06 13:21:39;;;;;;;13.30;12.20;;;;;;;23.68;31.09;94487.03;6113324;28;103955;-64
2022/04/06 13:24:41;;;;;;;13.07;12.00;;;;;;;23.65;31.11;94482.34;6118924;28;105923;-65
2022/04/06 13:27:45;;;;;;;13.13;12.03;;;;;;;23.65;31.02;94473.56;6118891;28;104054;-65
2022/04/06 13:30:47;;;;;;;12.33;11.43;;;;;;;23.67;31.26;94480.13;6118733;28;103361;-65
2022/04/06 13:33:49;;;;;;;12.10;11.20;;;;;;;23.66;31.59;94475.91;6095506;28;103493;-65
2022/04/06 13:36:51;;;;;;;12.87;11.77;;;;;;;23.65;30.87;94470.88;6118242;28;103095;-65
2022/04/06 13:39:53;;;;;;;11.33;10.40;;;;;;;23.66;31.52;94465.22;6118153;28;103018;-63
2022/04/06 13:42:54;;;;;;;11.30;10.27;;;;;;;23.68;31.17;94460.31;6115786;28;103068;-60
2022/04/06 13:45:56;;;;;;;10.93;10.13;;;;;;;23.66;31.23;94454.53;6116401;28;103403;-65
2022/04/06 13:48:58;;;;;;;11.30;10.40;;;;;;;23.64;30.94;94456.75;6118071;28;104247;-64
2022/04/06 13:52:03;;;;;;;11.50;10.50;;;;;;;23.63;31.06;94454.41;6106987;28;103656;-65
2022/04/06 13:55:05;;;;;;;11.90;10.90;;;;;;;23.62;31.17;94448.28;6085037;28;103347;-65
2022/04/06 13:58:08;;;;;;;10.93;10.00;;;;;;;23.62;30.81;94450.97;6061923;28;103196;-65
2022/04/06 14:01:09;;;;;;;10.23;9.40;;;;;;;23.60;31.30;94440.59;6059925;28;103029;-64
2022/04/06 14:04:13;;;;;;;11.13;10.23;;;;;;;23.59;30.88;94438.28;6060702;28;104145;-65
2022/04/06 14:07:14;;;;;;;10.50;9.53;;;;;;;23.60;30.75;94439.81;6055987;28;103988;-65
2022/04/06 14:10:16;;;;;;;9.90;9.10;;;;;;;23.60;30.90;94437.16;6060677;28;102847;-65
2022/04/06 14:13:21;;;;;;;10.13;9.13;;;;;;;23.59;31.40;94435.59;6068354;28;103319;-65
2022/04/06 14:16:23;;;;;;;9.70;8.90;;;;;;;23.60;31.44;94427.25;6097682;28;103148;-64